createdAt,value
2022-09-22T00:00:29.497Z,83.47
2022-09-22T00:01:29.786Z,83.51
2022-09-22T00:02:29.841Z,83.53
2022-09-22T00:03:29.875Z,83.56
2022-09-22T00:04:30.019Z,83.55
2022-09-22T00:05:30.178Z,83.67
2022-09-22T00:06:30.337Z,83.70
2022-09-22T00:07:30.429Z,83.77
2022-09-22T00:08:30.565Z,83.78
2022-09-22T00:09:30.701Z,83.82
2022-09-22T00:10:30.866Z,83.82
2022-09-22T00:11:30.979Z,83.78
2022-09-22T00:12:31.102Z,83.76
2022-09-22T00:13:31.223Z,83.83
2022-09-22T00:14:31.383Z,83.95
2022-09-22T00:15:31.491Z,84.11
2022-09-22T00:16:31.716Z,84.21
2022-09-22T00:17:31.739Z,84.33
2022-09-22T00:18:31.869Z,84.35
2022-09-22T00:19:32.021Z,84.37
2022-09-22T00:20:32.131Z,84.41
2022-09-22T00:21:32.290Z,84.52
2022-09-22T00:22:32.409Z,84.63
2022-09-22T00:23:32.511Z,84.66
2022-09-22T00:24:32.648Z,84.72
2022-09-22T00:25:32.796Z,84.74
2022-09-22T00:26:32.980Z,84.74
2022-09-22T00:27:33.067Z,84.69
2022-09-22T00:28:33.208Z,84.68
2022-09-22T00:29:33.358Z,84.71
2022-09-22T00:30:33.497Z,84.78
2022-09-22T00:31:33.724Z,84.81
2022-09-22T00:32:33.778Z,84.81
2022-09-22T00:33:33.877Z,84.78
2022-09-22T00:34:34.016Z,84.74
2022-09-22T00:35:34.165Z,84.76
2022-09-22T00:36:34.366Z,84.75
2022-09-22T00:37:34.407Z,84.75
2022-09-22T00:38:34.545Z,84.70
2022-09-22T00:39:34.693Z,84.62
2022-09-22T00:40:34.917Z,84.57
2022-09-22T00:41:35.006Z,84.54
2022-09-22T00:42:35.121Z,84.53
2022-09-22T00:43:35.225Z,84.46
2022-09-22T00:44:35.377Z,84.39
2022-09-22T00:45:35.494Z,84.35
2022-09-22T00:46:35.757Z,84.34
2022-09-22T00:47:35.761Z,84.32
2022-09-22T00:48:35.904Z,84.31
2022-09-22T00:49:36.030Z,84.34
2022-09-22T00:50:36.162Z,84.38
2022-09-22T00:51:36.361Z,84.40
2022-09-22T00:52:36.428Z,84.44
2022-09-22T00:53:36.582Z,84.43
2022-09-22T00:54:36.682Z,84.45
2022-09-22T00:55:36.828Z,84.43
2022-09-22T00:56:36.929Z,84.43
2022-09-22T00:57:37.059Z,84.38
2022-09-22T00:58:37.170Z,84.35
2022-09-22T00:59:37.310Z,84.31
2022-09-22T01:00:37.487Z,84.30
2022-09-22T01:01:37.665Z,84.33
2022-09-22T01:02:37.712Z,84.34
2022-09-22T01:03:37.779Z,84.32
2022-09-22T01:04:37.917Z,84.34
2022-09-22T01:05:38.068Z,84.40
2022-09-22T01:06:38.223Z,84.45
2022-09-22T01:07:38.290Z,84.46
2022-09-22T01:08:38.417Z,84.53
2022-09-22T01:09:38.558Z,84.55
2022-09-22T01:10:38.687Z,84.54
2022-09-22T01:11:38.941Z,84.51
2022-09-22T01:12:38.961Z,84.54
2022-09-22T01:13:39.105Z,84.47
2022-09-22T01:14:39.236Z,84.51
2022-09-22T01:15:39.396Z,84.52
2022-09-22T01:16:39.555Z,84.55
2022-09-22T01:17:39.664Z,84.60
2022-09-22T01:18:39.764Z,84.61
2022-09-22T01:19:39.917Z,84.60
2022-09-22T01:20:40.073Z,84.60
2022-09-22T01:21:40.208Z,84.54
2022-09-22T01:22:40.395Z,84.53
2022-09-22T01:23:40.443Z,84.48
2022-09-22T01:24:40.555Z,84.45
2022-09-22T01:25:40.681Z,84.43
2022-09-22T01:26:40.932Z,84.40
2022-09-22T01:27:40.965Z,84.40
2022-09-22T01:28:41.103Z,84.39
2022-09-22T01:29:41.223Z,84.36
2022-09-22T01:30:41.353Z,84.36
2022-09-22T01:31:41.594Z,84.38
2022-09-22T01:32:41.608Z,84.38
2022-09-22T01:33:41.770Z,84.36
2022-09-22T01:34:41.881Z,84.33
2022-09-22T01:35:42.059Z,84.32
2022-09-22T01:36:42.199Z,84.27
2022-09-22T01:37:42.269Z,84.21
2022-09-22T01:38:42.418Z,84.14
2022-09-22T01:39:42.571Z,84.06
2022-09-22T01:40:42.804Z,83.99
2022-09-22T01:41:42.877Z,83.91
2022-09-22T01:42:42.899Z,83.85
2022-09-22T01:43:43.009Z,83.76
2022-09-22T01:44:43.127Z,83.66
2022-09-22T01:45:43.269Z,83.59
2022-09-22T01:46:43.535Z,83.56
2022-09-22T01:47:43.536Z,83.53
2022-09-22T01:48:43.667Z,83.52
2022-09-22T01:49:43.806Z,83.52
2022-09-22T01:50:43.936Z,83.50
2022-09-22T01:51:44.121Z,83.48
2022-09-22T01:52:44.262Z,83.47
2022-09-22T01:53:44.354Z,83.50
2022-09-22T01:54:44.504Z,83.49
2022-09-22T01:55:44.644Z,83.51
2022-09-22T01:56:44.871Z,83.57
2022-09-22T01:57:44.883Z,83.60
2022-09-22T01:58:45.053Z,83.68
2022-09-22T01:59:45.154Z,83.79
2022-09-22T02:00:45.303Z,83.89
2022-09-22T02:01:45.557Z,83.93
2022-09-22T02:02:45.734Z,83.98
2022-09-22T02:03:45.663Z,84.00
2022-09-22T02:04:45.870Z,83.99
2022-09-22T02:05:45.962Z,84.03
2022-09-22T02:06:46.192Z,84.07
2022-09-22T02:07:46.259Z,84.11
2022-09-22T02:08:46.350Z,84.14
2022-09-22T02:09:46.465Z,84.15
2022-09-22T02:10:46.571Z,84.15
2022-09-22T02:11:46.722Z,84.14
2022-09-22T02:12:46.809Z,84.17
2022-09-22T02:13:46.940Z,84.17
2022-09-22T02:14:47.098Z,84.21
2022-09-22T02:15:47.214Z,84.19
2022-09-22T02:16:47.360Z,84.17
2022-09-22T02:17:47.483Z,84.11
2022-09-22T02:18:47.568Z,84.12
2022-09-22T02:19:47.699Z,84.08
2022-09-22T02:20:47.828Z,84.02
2022-09-22T02:21:47.987Z,84.02
2022-09-22T02:22:48.097Z,84.01
2022-09-22T02:23:48.236Z,83.97
2022-09-22T02:24:48.376Z,83.93
2022-09-22T02:25:48.526Z,83.86
2022-09-22T02:26:48.716Z,83.84
2022-09-22T02:27:48.862Z,83.77
2022-09-22T02:28:48.984Z,83.77
2022-09-22T02:29:49.084Z,83.77
2022-09-22T02:31:10.581Z,83.80
2022-09-22T02:31:50.441Z,83.89
2022-09-22T02:32:49.473Z,83.91
2022-09-22T02:33:49.615Z,83.90
2022-09-22T02:34:49.683Z,83.93
2022-09-22T02:35:49.833Z,83.92
2022-09-22T02:36:49.964Z,83.95
2022-09-22T02:37:50.062Z,83.96
2022-09-22T02:38:50.132Z,84.02
2022-09-22T02:39:50.275Z,84.05
2022-09-22T02:40:50.459Z,84.10
2022-09-22T02:41:50.705Z,84.09
2022-09-22T02:42:50.747Z,84.09
2022-09-22T02:43:50.812Z,84.10
2022-09-22T02:44:50.905Z,84.14
2022-09-22T02:45:51.112Z,84.10
2022-09-22T02:46:51.210Z,84.10
2022-09-22T02:47:51.320Z,84.09
2022-09-22T02:48:51.466Z,84.07
2022-09-22T02:49:51.547Z,84.07
2022-09-22T02:50:51.678Z,84.04
2022-09-22T02:51:51.919Z,84.03
2022-09-22T02:52:51.948Z,84.05
2022-09-22T02:53:52.112Z,84.07
2022-09-22T02:54:52.228Z,84.06
2022-09-22T02:55:52.377Z,84.03
2022-09-22T02:56:52.566Z,84.03
2022-09-22T02:57:52.637Z,84.03
2022-09-22T02:58:57.653Z,84.02
2022-09-22T02:59:53.877Z,84.08
2022-09-22T03:00:53.055Z,84.08
2022-09-22T03:01:53.204Z,84.09
2022-09-22T03:02:53.274Z,84.08
2022-09-22T03:03:53.417Z,84.08
2022-09-22T03:04:53.583Z,84.09
2022-09-22T03:05:53.705Z,84.08
2022-09-22T03:06:53.902Z,84.09
2022-09-22T03:07:53.955Z,84.07
2022-09-22T03:08:54.077Z,84.06
2022-09-22T03:09:54.204Z,84.11
2022-09-22T03:10:54.303Z,84.11
2022-09-22T03:11:54.462Z,84.13
2022-09-22T03:13:15.552Z,84.13
2022-09-22T03:13:55.686Z,84.17
2022-09-22T03:14:54.813Z,84.21
2022-09-22T03:15:54.981Z,84.22
2022-09-22T03:16:55.140Z,84.27
2022-09-22T03:17:55.231Z,84.30
2022-09-22T03:18:55.341Z,84.34
2022-09-22T03:19:55.481Z,84.39
2022-09-22T03:20:55.646Z,84.41
2022-09-22T03:21:55.759Z,84.39
2022-09-22T03:22:55.871Z,84.39
2022-09-22T03:23:55.959Z,84.42
2022-09-22T03:24:56.143Z,84.49
2022-09-22T03:25:56.230Z,84.51
2022-09-22T03:26:56.409Z,84.52
2022-09-22T03:27:56.498Z,84.53
2022-09-22T03:28:56.628Z,84.54
2022-09-22T03:29:56.767Z,84.56
2022-09-22T03:30:56.951Z,84.51
2022-09-22T03:31:57.127Z,84.47
2022-09-22T03:32:57.215Z,84.43
2022-09-22T03:33:57.310Z,84.39
2022-09-22T03:34:57.464Z,84.35
2022-09-22T03:35:57.557Z,84.32
2022-09-22T03:36:57.735Z,84.26
2022-09-22T03:37:57.855Z,84.21
2022-09-22T03:38:57.940Z,84.19
2022-09-22T03:39:58.075Z,84.15
2022-09-22T03:40:58.234Z,84.13
2022-09-22T03:41:58.359Z,84.09
2022-09-22T03:42:58.490Z,84.05
2022-09-22T03:43:58.563Z,84.01
2022-09-22T03:44:58.719Z,84.03
2022-09-22T03:45:58.908Z,84.00
2022-09-22T03:46:59.003Z,84.02
2022-09-22T03:47:59.091Z,83.96
2022-09-22T03:48:59.264Z,83.96
2022-09-22T03:49:59.388Z,83.92
2022-09-22T03:50:59.483Z,83.89
2022-09-22T03:51:59.681Z,83.92
2022-09-22T03:52:59.726Z,83.89
2022-09-22T03:53:59.946Z,83.89
2022-09-22T03:54:59.971Z,83.84
2022-09-22T03:56:00.115Z,83.81
2022-09-22T03:57:00.250Z,83.80
2022-09-22T03:58:00.393Z,83.82
2022-09-22T03:59:00.560Z,83.83
2022-09-22T04:00:00.661Z,83.83
2022-09-22T04:01:00.893Z,83.81
2022-09-22T04:02:01.054Z,83.83
2022-09-22T04:03:01.071Z,83.85
2022-09-22T04:04:01.227Z,83.87
2022-09-22T04:05:01.332Z,83.84
2022-09-22T04:06:01.468Z,83.83
2022-09-22T04:07:06.882Z,83.87
2022-09-22T04:08:02.731Z,83.92
2022-09-22T04:09:01.861Z,83.95
2022-09-22T04:10:01.995Z,83.98
2022-09-22T04:11:02.153Z,83.99
2022-09-22T04:12:02.279Z,84.03
2022-09-22T04:13:02.412Z,84.05
2022-09-22T04:14:02.486Z,84.09
2022-09-22T04:15:02.628Z,84.13
2022-09-22T04:16:02.775Z,84.17
2022-09-22T04:17:02.932Z,84.22
2022-09-22T04:18:03.010Z,84.19
2022-09-22T04:19:03.150Z,84.13
2022-09-22T04:20:03.272Z,84.12
2022-09-22T04:21:03.425Z,84.11
2022-09-22T04:22:03.571Z,84.22
2022-09-22T04:23:03.670Z,84.44
2022-09-22T04:24:03.764Z,84.61
2022-09-22T04:25:03.936Z,84.82
2022-09-22T04:26:04.015Z,85.06
2022-09-22T04:27:20.878Z,85.23
2022-09-22T04:28:05.784Z,85.37
2022-09-22T04:29:04.399Z,85.46
2022-09-22T04:30:04.531Z,85.48
2022-09-22T04:31:04.741Z,85.54
2022-09-22T04:32:04.859Z,85.56
2022-09-22T04:33:04.950Z,85.55
2022-09-22T04:34:07.633Z,85.57
2022-09-22T04:35:05.189Z,85.59
2022-09-22T04:36:05.311Z,85.65
2022-09-22T04:37:05.488Z,85.67
2022-09-22T04:38:05.581Z,85.65
2022-09-22T04:39:05.734Z,85.59
2022-09-22T04:40:05.837Z,85.64
2022-09-22T04:41:05.963Z,85.68
2022-09-22T04:42:06.117Z,85.78
2022-09-22T04:43:06.227Z,85.86
2022-09-22T04:44:06.307Z,85.91
2022-09-22T04:45:06.451Z,85.87
2022-09-22T04:46:06.624Z,85.80
2022-09-22T04:47:06.789Z,85.77
2022-09-22T04:48:06.806Z,85.77
2022-09-22T04:49:06.935Z,85.71
2022-09-22T04:50:07.139Z,85.64
2022-09-22T04:51:07.225Z,85.64
2022-09-22T04:52:07.475Z,85.56
2022-09-22T04:53:07.444Z,85.50
2022-09-22T04:54:07.564Z,85.47
2022-09-22T04:55:07.724Z,85.41
2022-09-22T04:56:07.813Z,85.35
2022-09-22T04:57:08.142Z,85.41
2022-09-22T04:58:08.096Z,85.43
2022-09-22T04:59:08.232Z,85.42
2022-09-22T05:00:08.350Z,85.45
2022-09-22T05:01:08.569Z,85.53
2022-09-22T05:02:08.772Z,85.60
2022-09-22T05:03:08.800Z,85.66
2022-09-22T05:04:08.861Z,85.76
2022-09-22T05:05:09.002Z,85.81
2022-09-22T05:06:09.150Z,85.83
2022-09-22T05:07:09.470Z,85.80
2022-09-22T05:08:09.412Z,85.78
2022-09-22T05:09:09.560Z,85.76
2022-09-22T05:10:09.759Z,85.70
2022-09-22T05:11:09.845Z,85.68
2022-09-22T05:12:10.039Z,85.65
2022-09-22T05:13:10.117Z,85.65
2022-09-22T05:14:10.258Z,85.62
2022-09-22T05:15:10.387Z,85.56
2022-09-22T05:16:10.561Z,85.55
2022-09-22T05:17:10.827Z,85.55
2022-09-22T05:18:10.817Z,85.49
2022-09-22T05:19:10.957Z,85.48
2022-09-22T05:20:11.087Z,85.48
2022-09-22T05:21:11.253Z,85.50
2022-09-22T05:22:11.448Z,85.51
2022-09-22T05:23:11.488Z,85.54
2022-09-22T05:24:11.639Z,85.53
2022-09-22T05:25:11.728Z,85.50
2022-09-22T05:26:11.877Z,85.47
2022-09-22T05:27:12.114Z,85.46
2022-09-22T05:28:12.154Z,85.49
2022-09-22T05:29:12.284Z,85.44
2022-09-22T05:30:12.413Z,85.39
2022-09-22T05:31:12.513Z,85.39
2022-09-22T05:32:12.758Z,85.39
2022-09-22T05:33:12.782Z,85.38
2022-09-22T05:34:12.924Z,85.41
2022-09-22T05:35:13.054Z,85.41
2022-09-22T05:36:13.204Z,85.44
2022-09-22T05:37:14.283Z,85.46
2022-09-22T05:38:13.442Z,85.45
2022-09-22T05:39:13.543Z,85.45
2022-09-22T05:40:13.716Z,85.42
2022-09-22T05:41:13.853Z,85.41
2022-09-22T05:42:14.980Z,85.35
2022-09-22T05:43:14.120Z,85.31
2022-09-22T05:44:15.199Z,85.26
2022-09-22T05:45:14.305Z,85.23
2022-09-22T05:46:14.530Z,85.24
2022-09-22T05:47:14.612Z,85.26
2022-09-22T05:48:14.679Z,85.23
2022-09-22T05:49:14.858Z,85.19
2022-09-22T05:50:14.959Z,85.16
2022-09-22T05:51:15.089Z,85.10
2022-09-22T05:52:15.366Z,85.06
2022-09-22T05:53:15.386Z,85.01
2022-09-22T05:54:18.039Z,84.95
2022-09-22T05:55:15.620Z,84.95
2022-09-22T05:56:15.716Z,84.89
2022-09-22T05:57:16.825Z,84.84
2022-09-22T05:58:16.058Z,84.78
2022-09-22T05:59:16.147Z,84.72
2022-09-22T06:00:16.285Z,84.69
2022-09-22T06:01:16.496Z,84.64
2022-09-22T06:02:25.787Z,84.57
2022-09-22T06:03:17.687Z,84.54
2022-09-22T06:04:16.816Z,84.50
2022-09-22T06:05:19.375Z,84.42
2022-09-22T06:06:17.062Z,84.34
2022-09-22T06:07:17.237Z,84.27
2022-09-22T06:08:17.342Z,84.26
2022-09-22T06:09:17.433Z,84.25
2022-09-22T06:10:17.561Z,84.24
2022-09-22T06:11:19.225Z,84.22
2022-09-22T06:12:17.852Z,84.14
2022-09-22T06:13:17.960Z,84.21
2022-09-22T06:14:18.083Z,84.23
2022-09-22T06:15:18.220Z,84.03
2022-09-22T06:16:18.416Z,83.59
2022-09-22T06:17:18.515Z,83.03
2022-09-22T06:18:24.206Z,82.48
2022-09-22T06:19:19.769Z,81.69
2022-09-22T06:20:18.860Z,80.93
2022-09-22T06:21:18.941Z,80.53
2022-09-22T06:22:19.111Z,80.02
2022-09-22T06:23:19.200Z,79.39
2022-09-22T06:24:19.353Z,78.83
2022-09-22T06:25:19.448Z,78.30
2022-09-22T06:26:19.591Z,77.83
2022-09-22T06:27:19.745Z,77.36
2022-09-22T06:28:19.866Z,76.98
2022-09-22T06:29:19.987Z,76.50
2022-09-22T06:30:20.170Z,76.49
2022-09-22T06:31:20.284Z,75.88
2022-09-22T06:32:20.416Z,75.86
2022-09-22T06:33:20.561Z,75.97
2022-09-22T06:34:20.676Z,75.83
2022-09-22T06:35:20.825Z,75.73
2022-09-22T06:36:20.956Z,76.02
2022-09-22T06:37:21.165Z,76.11
2022-09-22T06:38:21.214Z,75.87
2022-09-22T06:39:21.342Z,75.60
2022-09-22T06:40:21.548Z,75.73
2022-09-22T06:41:21.606Z,75.96
2022-09-22T06:42:21.864Z,75.46
2022-09-22T06:43:21.914Z,75.60
2022-09-22T06:44:22.015Z,74.95
2022-09-22T06:45:22.130Z,74.93
2022-09-22T06:46:22.274Z,75.57
2022-09-22T06:47:22.439Z,75.44
2022-09-22T06:48:22.533Z,75.52
2022-09-22T06:49:22.633Z,75.12
2022-09-22T06:50:22.733Z,74.89
2022-09-22T06:51:22.884Z,75.05
2022-09-22T06:52:23.053Z,74.51
2022-09-22T06:53:26.110Z,74.34
2022-09-22T06:54:25.442Z,73.76
2022-09-22T06:55:23.441Z,74.00
2022-09-22T06:56:23.532Z,72.44
2022-09-22T06:57:23.722Z,72.52
2022-09-22T06:58:23.831Z,72.56
2022-09-22T06:59:23.932Z,72.48
2022-09-22T07:00:24.135Z,71.68
2022-09-22T07:01:24.299Z,71.74
2022-09-22T07:02:24.360Z,71.83
2022-09-22T07:03:24.481Z,71.57
2022-09-22T07:04:24.569Z,70.88
2022-09-22T07:05:24.709Z,69.60
2022-09-22T07:06:24.800Z,68.73
2022-09-22T07:07:24.926Z,67.57
2022-09-22T07:08:25.020Z,67.38
2022-09-22T07:09:25.158Z,68.79
2022-09-22T07:10:25.311Z,67.26
2022-09-22T07:11:25.419Z,66.48
2022-09-22T07:12:25.535Z,67.33
2022-09-22T07:13:25.643Z,66.22
2022-09-22T07:14:25.749Z,67.64
2022-09-22T07:15:25.848Z,67.43
2022-09-22T07:16:25.995Z,68.01
2022-09-22T07:17:26.091Z,68.08
2022-09-22T07:18:26.188Z,68.36
2022-09-22T07:19:26.316Z,66.92
2022-09-22T07:20:27.278Z,67.61
2022-09-22T07:21:26.548Z,65.96
2022-09-22T07:22:26.688Z,64.85
2022-09-22T07:23:26.796Z,65.79
2022-09-22T07:24:26.905Z,66.15
2022-09-22T07:25:27.976Z,65.97
2022-09-22T07:26:27.106Z,66.55
2022-09-22T07:27:27.306Z,66.18
2022-09-22T07:28:27.407Z,64.71
2022-09-22T07:29:27.557Z,63.65
2022-09-22T07:30:27.675Z,64.25
2022-09-22T07:31:28.972Z,65.15
2022-09-22T07:32:27.934Z,64.63
2022-09-22T07:33:28.025Z,65.20
2022-09-22T07:34:28.126Z,64.68
2022-09-22T07:35:28.236Z,64.72
2022-09-22T07:36:28.345Z,64.77
2022-09-22T07:37:28.522Z,62.80
2022-09-22T07:38:28.622Z,62.50
2022-09-22T07:39:28.764Z,62.36
2022-09-22T07:40:28.963Z,62.73
2022-09-22T07:41:29.003Z,63.25
2022-09-22T07:42:29.222Z,63.19
2022-09-22T07:43:29.264Z,60.94
2022-09-22T07:44:29.413Z,60.39
2022-09-22T07:45:29.566Z,61.19
2022-09-22T07:46:29.766Z,59.73
2022-09-22T07:47:29.807Z,61.01
2022-09-22T07:48:29.906Z,61.06
2022-09-22T07:49:30.042Z,58.53
2022-09-22T07:50:30.197Z,58.85
2022-09-22T07:51:30.383Z,59.33
2022-09-22T07:52:30.493Z,58.21
2022-09-22T07:53:30.607Z,58.54
2022-09-22T07:54:30.702Z,58.89
2022-09-22T07:55:30.843Z,60.35
2022-09-22T07:56:31.023Z,59.38
2022-09-22T07:57:31.113Z,59.65
2022-09-22T07:58:31.273Z,57.03
2022-09-22T07:59:31.363Z,59.25
2022-09-22T08:00:31.536Z,58.47
2022-09-22T08:01:31.676Z,57.29
2022-09-22T08:02:31.715Z,56.89
2022-09-22T08:03:31.862Z,57.77
2022-09-22T08:04:32.041Z,57.78
2022-09-22T08:05:32.071Z,59.66
2022-09-22T08:06:32.452Z,59.25
2022-09-22T08:07:32.334Z,60.72
2022-09-22T08:08:32.513Z,57.86
2022-09-22T08:09:32.562Z,55.61
2022-09-22T08:10:32.788Z,55.83
2022-09-22T08:11:32.910Z,53.47
2022-09-22T08:12:32.972Z,54.17
2022-09-22T08:13:33.082Z,55.65
2022-09-22T08:14:33.191Z,53.90
2022-09-22T08:15:33.301Z,55.47
2022-09-22T08:16:33.622Z,53.57
2022-09-22T08:17:33.533Z,55.19
2022-09-22T08:18:33.700Z,54.34
2022-09-22T08:19:33.823Z,53.15
2022-09-22T08:20:33.932Z,53.15
2022-09-22T08:21:34.199Z,56.27
2022-09-22T08:22:34.171Z,56.04
2022-09-22T08:23:34.277Z,56.04
2022-09-22T08:24:34.423Z,53.47
2022-09-22T08:25:34.580Z,55.16
2022-09-22T08:26:34.730Z,52.54
2022-09-22T08:27:34.830Z,53.98
2022-09-22T08:28:34.920Z,55.81
2022-09-22T08:29:35.080Z,56.63
2022-09-22T08:30:35.172Z,57.08
2022-09-22T08:31:35.464Z,57.96
2022-09-22T08:32:35.393Z,55.82
2022-09-22T08:33:35.512Z,54.29
2022-09-22T08:34:35.620Z,56.30
2022-09-22T08:35:35.740Z,55.20
2022-09-22T08:36:36.019Z,53.58
2022-09-22T08:37:35.949Z,53.19
2022-09-22T08:38:36.110Z,55.20
2022-09-22T08:39:36.213Z,51.54
2022-09-22T08:40:36.428Z,50.29
2022-09-22T08:41:36.540Z,54.84
2022-09-22T08:42:36.648Z,50.09
2022-09-22T08:43:36.759Z,50.12
2022-09-22T08:44:36.879Z,47.94
2022-09-22T08:45:36.989Z,49.05
2022-09-22T08:46:37.193Z,49.16
2022-09-22T08:47:37.228Z,51.63
2022-09-22T08:48:37.359Z,51.57
2022-09-22T08:49:37.468Z,49.58
2022-09-22T08:50:37.600Z,52.28
2022-09-22T08:51:37.728Z,48.01
2022-09-22T08:52:37.819Z,47.39
2022-09-22T08:53:37.936Z,47.19
2022-09-22T08:54:38.048Z,51.78
2022-09-22T08:55:38.148Z,50.08
2022-09-22T08:56:38.357Z,50.76
2022-09-22T08:57:38.417Z,49.73
2022-09-22T08:58:38.518Z,47.73
2022-09-22T08:59:38.628Z,49.90
2022-09-22T09:00:42.625Z,48.61
2022-09-22T09:01:39.041Z,47.37
2022-09-22T09:02:39.035Z,50.68
2022-09-22T09:03:39.167Z,48.74
2022-09-22T09:04:39.200Z,50.14
2022-09-22T09:05:39.359Z,48.83
2022-09-22T09:06:39.525Z,45.99
2022-09-22T09:07:39.579Z,46.02
2022-09-22T09:08:39.677Z,47.58
2022-09-22T09:09:39.788Z,51.94
2022-09-22T09:10:39.907Z,48.32
2022-09-22T09:11:40.059Z,49.58
2022-09-22T09:12:40.206Z,47.07
2022-09-22T09:13:40.227Z,45.93
2022-09-22T09:14:40.347Z,44.70
2022-09-22T09:15:40.517Z,43.98
2022-09-22T09:16:40.637Z,44.87
2022-09-22T09:17:40.753Z,46.39
2022-09-22T09:18:40.869Z,50.84
2022-09-22T09:19:40.977Z,48.44
2022-09-22T09:20:41.066Z,46.87
2022-09-22T09:21:41.288Z,47.10
2022-09-22T09:22:44.912Z,49.12
2022-09-22T09:25:42.724Z,46.85
2022-09-22T09:26:42.076Z,47.46
2022-09-22T09:27:41.926Z,49.96
2022-09-22T09:28:42.028Z,45.84
2022-09-22T09:29:42.144Z,45.24
2022-09-22T09:30:42.255Z,48.51
2022-09-22T09:31:42.390Z,45.36
2022-09-22T09:32:42.496Z,43.24
2022-09-22T09:33:42.607Z,43.75
2022-09-22T09:34:42.725Z,45.52
2022-09-22T09:35:42.826Z,45.47
2022-09-22T09:36:43.041Z,43.74
2022-09-22T09:37:43.061Z,45.42
2022-09-22T09:38:43.166Z,44.31
2022-09-22T09:39:43.277Z,44.78
2022-09-22T09:40:43.430Z,45.77
2022-09-22T09:41:43.648Z,44.12
2022-09-22T09:42:43.625Z,44.58
2022-09-22T09:43:43.725Z,44.32
2022-09-22T09:44:43.895Z,46.83
2022-09-22T09:45:44.005Z,44.65
2022-09-22T09:46:44.240Z,45.90
2022-09-22T09:47:44.235Z,49.10
2022-09-22T09:48:44.396Z,46.91
2022-09-22T09:49:44.527Z,48.87
2022-09-22T09:50:44.636Z,45.75
2022-09-22T09:51:44.795Z,44.14
2022-09-22T09:52:44.834Z,47.05
2022-09-22T09:53:44.987Z,47.49
2022-09-22T09:54:45.135Z,49.94
2022-09-22T09:55:45.235Z,47.92
2022-09-22T09:56:45.464Z,44.72
2022-09-22T09:57:45.474Z,44.27
2022-09-22T09:58:45.608Z,44.97
2022-09-22T09:59:45.725Z,45.61
2022-09-22T10:00:47.276Z,46.53
2022-09-22T10:01:46.037Z,44.92
2022-09-22T10:02:46.085Z,46.72
2022-09-22T10:03:46.256Z,45.12
2022-09-22T10:04:46.312Z,46.00
2022-09-22T10:05:46.415Z,45.39
2022-09-22T10:06:46.593Z,44.89
2022-09-22T10:07:46.655Z,46.45
2022-09-22T10:08:46.754Z,45.87
2022-09-22T10:09:46.864Z,48.52
2022-09-22T10:10:46.974Z,49.26
2022-09-22T10:11:47.127Z,45.78
2022-09-22T10:12:47.232Z,43.05
2022-09-22T10:13:47.337Z,44.73
2022-09-22T10:14:47.474Z,44.20
2022-09-22T10:15:47.600Z,44.56
2022-09-22T10:16:47.723Z,45.55
2022-09-22T10:17:47.764Z,47.04
2022-09-22T10:18:47.915Z,45.03
2022-09-22T10:19:48.061Z,43.30
2022-09-22T10:20:48.173Z,44.79
2022-09-22T10:21:48.332Z,47.43
2022-09-22T10:22:48.442Z,47.80
2022-09-22T10:23:48.552Z,46.87
2022-09-22T10:24:48.643Z,47.60
2022-09-22T10:25:48.744Z,47.92
2022-09-22T10:26:48.953Z,45.69
2022-09-22T10:27:49.012Z,46.72
2022-09-22T10:28:49.121Z,49.31
2022-09-22T10:29:49.214Z,48.67
2022-09-22T10:30:49.327Z,46.81
2022-09-22T10:31:49.494Z,44.93
2022-09-22T10:32:49.572Z,47.50
2022-09-22T10:33:49.673Z,45.90
2022-09-22T10:34:49.790Z,44.55
2022-09-22T10:35:49.902Z,44.79
2022-09-22T10:36:50.031Z,44.76
2022-09-22T10:37:50.130Z,44.77
2022-09-22T10:38:51.075Z,43.96
2022-09-22T10:39:50.412Z,44.19
2022-09-22T10:40:50.560Z,45.76
2022-09-22T10:41:50.722Z,46.83
2022-09-22T10:42:50.797Z,45.51
2022-09-22T10:43:50.893Z,43.02
2022-09-22T10:44:51.002Z,43.41
2022-09-22T10:45:51.153Z,43.48
2022-09-22T10:46:51.415Z,43.46
2022-09-22T10:47:51.385Z,44.53
2022-09-22T10:48:51.439Z,44.96
2022-09-22T10:49:51.602Z,46.07
2022-09-22T10:50:51.711Z,42.49
2022-09-22T10:51:51.884Z,43.08
2022-09-22T10:52:51.960Z,43.27
2022-09-22T10:53:52.059Z,43.13
2022-09-22T10:54:52.167Z,43.66
2022-09-22T10:55:52.253Z,44.72
2022-09-22T10:56:52.538Z,45.21
2022-09-22T10:57:52.529Z,44.46
2022-09-22T10:58:52.690Z,46.57
2022-09-22T10:59:52.800Z,45.90
2022-09-22T11:00:52.900Z,45.55
2022-09-22T11:01:53.075Z,43.00
2022-09-22T11:02:53.169Z,45.76
2022-09-22T11:03:53.269Z,46.90
2022-09-22T11:04:53.495Z,45.97
2022-09-22T11:05:53.564Z,42.07
2022-09-22T11:06:53.700Z,39.94
2022-09-22T11:07:53.810Z,43.02
2022-09-22T11:08:53.911Z,42.29
2022-09-22T11:09:54.020Z,45.44
2022-09-22T11:10:54.119Z,44.82
2022-09-22T11:11:54.376Z,44.69
2022-09-22T11:12:54.430Z,41.37
2022-09-22T11:13:54.519Z,45.50
2022-09-22T11:14:54.692Z,41.47
2022-09-22T11:15:54.871Z,39.74
2022-09-22T11:16:55.109Z,40.82
2022-09-22T11:17:55.050Z,44.73
2022-09-22T11:18:55.149Z,46.35
2022-09-22T11:19:55.320Z,48.56
2022-09-22T11:20:56.979Z,41.87
2022-09-22T11:21:55.580Z,42.06
2022-09-22T11:22:55.659Z,38.32
2022-09-22T11:23:55.759Z,39.34
2022-09-22T11:24:55.869Z,42.44
2022-09-22T11:25:55.967Z,45.84
2022-09-22T11:26:56.110Z,39.14
2022-09-22T11:27:56.209Z,38.48
2022-09-22T11:28:57.469Z,37.83
2022-09-22T11:29:56.461Z,37.77
2022-09-22T11:30:56.636Z,39.62
2022-09-22T11:31:56.738Z,40.30
2022-09-22T11:32:56.858Z,39.22
2022-09-22T11:33:56.948Z,38.95
2022-09-22T11:34:57.139Z,39.28
2022-09-22T11:35:57.236Z,38.73
2022-09-22T11:36:57.385Z,38.77
2022-09-22T11:37:57.500Z,39.93
2022-09-22T11:38:57.625Z,40.06
2022-09-22T11:39:57.733Z,40.26
2022-09-22T11:41:57.959Z,38.42
2022-09-22T11:43:00.727Z,38.45
2022-09-22T11:43:59.336Z,38.57
2022-09-22T11:44:58.317Z,39.31
2022-09-22T11:45:58.487Z,39.88
2022-09-22T11:46:58.638Z,39.48
2022-09-22T11:47:58.640Z,44.26
2022-09-22T11:48:58.747Z,38.63
2022-09-22T11:49:58.858Z,37.85
2022-09-22T11:50:58.969Z,39.68
2022-09-22T11:51:59.142Z,39.24
2022-09-22T11:52:59.207Z,38.94
2022-09-22T11:53:59.386Z,37.59
2022-09-22T11:55:00.848Z,41.23
2022-09-22T11:55:59.526Z,38.12
2022-09-22T11:56:59.776Z,39.24
2022-09-22T11:57:59.793Z,38.16
2022-09-22T11:58:59.910Z,38.16
2022-09-22T11:59:59.997Z,39.16
2022-09-22T12:01:00.107Z,41.47
2022-09-22T12:02:00.339Z,39.08
2022-09-22T12:03:03.540Z,38.09
2022-09-22T12:04:00.470Z,39.08
2022-09-22T12:05:00.566Z,39.64
2022-09-22T12:06:00.684Z,44.20
2022-09-22T12:07:00.855Z,44.28
2022-09-22T12:08:00.936Z,42.63
2022-09-22T12:09:01.094Z,37.62
2022-09-22T12:10:01.169Z,36.59
2022-09-22T12:11:01.267Z,41.49
2022-09-22T12:12:01.408Z,37.79
2022-09-22T12:13:01.514Z,38.23
2022-09-22T12:14:01.646Z,38.44
2022-09-22T12:15:01.739Z,42.14
2022-09-22T12:16:01.990Z,44.92
2022-09-22T12:17:01.994Z,40.41
2022-09-22T12:18:02.110Z,41.20
2022-09-22T12:19:02.188Z,36.77
2022-09-22T12:20:02.274Z,36.79
2022-09-22T12:21:02.378Z,35.67
2022-09-22T12:22:02.550Z,36.09
2022-09-22T12:23:02.646Z,36.09
2022-09-22T12:24:02.755Z,37.48
2022-09-22T12:25:02.840Z,36.74
2022-09-22T12:26:02.993Z,35.80
2022-09-22T12:27:03.138Z,36.67
2022-09-22T12:28:03.234Z,39.66
2022-09-22T12:29:03.403Z,37.22
2022-09-22T12:30:03.496Z,35.37
2022-09-22T12:31:03.816Z,39.37
2022-09-22T12:32:03.735Z,35.72
2022-09-22T12:33:03.831Z,35.02
2022-09-22T12:34:03.932Z,41.87
2022-09-22T12:35:04.043Z,37.50
2022-09-22T12:36:04.152Z,35.05
2022-09-22T12:37:04.285Z,36.41
2022-09-22T12:38:04.404Z,38.35
2022-09-22T12:39:04.511Z,38.17
2022-09-22T12:40:04.685Z,38.21
2022-09-22T12:41:04.701Z,36.85
2022-09-22T12:42:04.904Z,38.43
2022-09-22T12:43:05.002Z,40.73
2022-09-22T12:44:05.120Z,37.91
2022-09-22T12:45:05.210Z,34.66
2022-09-22T12:46:05.403Z,34.69
2022-09-22T12:47:05.568Z,35.16
2022-09-22T12:48:07.164Z,37.59
2022-09-22T12:49:05.767Z,35.46
2022-09-22T12:50:05.856Z,36.16
2022-09-22T12:51:05.932Z,34.93
2022-09-22T12:52:06.108Z,34.63
2022-09-22T12:53:06.223Z,39.47
2022-09-22T12:54:06.419Z,37.32
2022-09-22T12:55:06.521Z,40.01
2022-09-22T12:56:06.603Z,37.73
2022-09-22T12:58:06.882Z,35.53